createdAt,value
2024-05-09T00:00:56.045Z,99049.03
2024-05-09T00:03:28.217Z,99045.16
2024-05-09T00:06:01.077Z,99055.69
2024-05-09T00:08:33.538Z,99053.56
2024-05-09T00:11:06.475Z,99051.41
2024-05-09T00:13:38.542Z,99052.97
2024-05-09T00:16:11.559Z,99057.63
2024-05-09T00:18:43.683Z,99053.78
2024-05-09T00:21:16.476Z,99050.88
2024-05-09T00:23:48.565Z,99055.72
2024-05-09T00:26:21.580Z,99051.16
2024-05-09T00:28:53.656Z,99042.34
2024-05-09T00:31:26.977Z,99046.75
2024-05-09T00:33:59.311Z,99051.78
2024-05-09T00:36:31.978Z,99050.09
2024-05-09T00:39:04.213Z,99050.50
2024-05-09T00:41:37.088Z,99048.44
2024-05-09T00:44:09.426Z,99039.81
2024-05-09T00:46:41.929Z,99039.78
2024-05-09T00:49:14.131Z,99041.53
2024-05-09T00:51:46.859Z,99044.03
2024-05-09T00:54:19.903Z,99040.78
2024-05-09T00:56:53.336Z,99033.94
2024-05-09T00:59:25.997Z,99036.59
2024-05-09T01:01:59.814Z,99035.16
2024-05-09T01:04:31.995Z,99030.66
2024-05-09T01:07:04.776Z,99030.78
2024-05-09T01:09:37.265Z,99030.44
2024-05-09T01:12:09.553Z,99034.41
2024-05-09T01:14:41.743Z,99029.91
2024-05-09T01:17:15.065Z,99027.22
2024-05-09T01:19:47.790Z,99033.09
2024-05-09T01:22:20.610Z,99022.41
2024-05-09T01:24:52.759Z,99024.78
2024-05-09T01:27:25.235Z,99028.41
2024-05-09T01:29:57.266Z,99026.56
2024-05-09T01:32:29.863Z,99017.72
2024-05-09T01:35:02.118Z,99025.44
2024-05-09T01:37:34.625Z,99023.00
2024-05-09T01:40:12.329Z,99019.50
2024-05-09T01:42:51.244Z,99029.41
2024-05-09T01:45:23.357Z,99023.09
2024-05-09T01:47:56.019Z,99025.56
2024-05-09T01:50:37.754Z,99018.13
2024-05-09T01:53:15.355Z,99028.78
2024-05-09T01:55:47.718Z,99024.66
2024-05-09T01:58:21.166Z,99026.28
2024-05-09T02:00:53.410Z,99020.00
2024-05-09T02:03:26.007Z,99031.38
2024-05-09T02:05:58.443Z,99030.38
2024-05-09T02:08:30.791Z,99036.41
2024-05-09T02:11:03.423Z,99040.03
2024-05-09T02:13:35.561Z,99044.88
2024-05-09T02:16:14.479Z,99038.38
2024-05-09T02:18:47.159Z,99035.16
2024-05-09T02:21:19.773Z,99032.09
2024-05-09T02:23:51.892Z,99027.00
2024-05-09T02:26:24.999Z,99030.69
2024-05-09T02:28:57.416Z,99037.53
2024-05-09T02:31:29.733Z,99022.28
2024-05-09T02:34:02.077Z,99036.50
2024-05-09T02:36:35.158Z,99043.66
2024-05-09T02:39:07.445Z,99024.09
2024-05-09T02:41:40.099Z,99029.81
2024-05-09T02:44:12.269Z,99035.34
2024-05-09T02:46:45.531Z,99031.72
2024-05-09T02:49:17.760Z,99031.47
2024-05-09T02:51:50.575Z,99028.09
2024-05-09T02:54:22.657Z,99032.47
2024-05-09T02:56:55.248Z,99023.94
2024-05-09T02:59:27.738Z,99026.44
2024-05-09T03:02:01.018Z,99027.84
2024-05-09T03:04:33.295Z,99018.59
2024-05-09T03:07:06.084Z,99022.41
2024-05-09T03:09:38.229Z,99020.06
2024-05-09T03:12:11.455Z,99019.31
2024-05-09T03:14:43.587Z,99020.09
2024-05-09T03:17:16.219Z,99015.78
2024-05-09T03:19:48.865Z,99020.44
2024-05-09T03:22:21.641Z,99012.69
2024-05-09T03:24:53.692Z,99015.31
2024-05-09T03:27:26.299Z,99017.19
2024-05-09T03:29:58.989Z,99019.69
2024-05-09T03:32:31.760Z,99019.22
2024-05-09T03:35:04.176Z,98995.50
2024-05-09T03:37:36.830Z,99011.78
2024-05-09T03:40:14.647Z,99017.97
2024-05-09T03:42:52.827Z,99017.34
2024-05-09T03:45:25.037Z,99022.13
2024-05-09T03:47:57.841Z,99016.56
2024-05-09T03:50:35.108Z,99026.06
2024-05-09T03:53:12.094Z,99027.56
2024-05-09T03:55:44.380Z,99029.81
2024-05-09T03:58:19.261Z,99020.03
2024-05-09T04:00:51.384Z,99021.28
2024-05-09T04:03:24.176Z,99010.38
2024-05-09T04:05:57.798Z,99008.00
2024-05-09T04:08:30.586Z,99007.84
2024-05-09T04:11:02.988Z,99009.38
2024-05-09T04:13:35.632Z,99010.97
2024-05-09T04:16:10.574Z,99021.25
2024-05-09T04:18:43.365Z,99014.59
2024-05-09T04:21:15.550Z,99017.19
2024-05-09T04:23:48.187Z,99018.63
2024-05-09T04:26:20.361Z,99009.72
2024-05-09T04:28:53.710Z,99003.47
2024-05-09T04:31:25.992Z,99011.50
2024-05-09T04:33:58.779Z,98996.06
2024-05-09T04:36:30.950Z,99009.06
2024-05-09T04:39:03.549Z,99017.53
2024-05-09T04:41:35.864Z,99017.06
2024-05-09T04:44:08.562Z,99007.31
2024-05-09T04:46:40.690Z,99009.34
2024-05-09T04:49:13.509Z,99010.72
2024-05-09T04:51:45.634Z,99013.19
2024-05-09T04:54:26.279Z,99013.34
2024-05-09T04:57:06.356Z,99020.47
2024-05-09T04:59:39.061Z,99032.72
2024-05-09T05:02:11.254Z,99023.34
2024-05-09T05:04:43.936Z,99020.84
2024-05-09T05:07:16.513Z,99028.97
2024-05-09T05:09:49.179Z,99028.44
2024-05-09T05:12:39.613Z,99026.97
2024-05-09T05:15:12.399Z,99030.81
2024-05-09T05:17:44.636Z,99031.47
2024-05-09T05:20:27.161Z,99024.38
2024-05-09T05:23:15.600Z,99030.81
2024-05-09T05:25:50.673Z,99034.31
2024-05-09T05:28:23.473Z,99031.09
2024-05-09T05:30:57.268Z,99030.28
2024-05-09T05:33:29.740Z,99035.06
2024-05-09T05:36:02.366Z,99035.94
2024-05-09T05:38:34.576Z,99038.19
2024-05-09T05:41:07.238Z,99036.16
2024-05-09T05:43:39.671Z,99044.59
2024-05-09T05:46:12.694Z,99043.09
2024-05-09T05:48:45.157Z,99050.59
2024-05-09T05:51:17.981Z,99045.88
2024-05-09T05:53:50.154Z,99048.00
2024-05-09T05:56:23.153Z,99042.47
2024-05-09T05:58:55.711Z,99040.63
2024-05-09T06:01:28.408Z,99056.13
2024-05-09T06:04:00.651Z,99056.66
2024-05-09T06:06:33.326Z,99053.03
2024-05-09T06:09:05.782Z,99066.97
2024-05-09T06:11:41.489Z,99058.59
2024-05-09T06:14:15.230Z,99067.34
2024-05-09T06:16:47.972Z,99064.28
2024-05-09T06:19:20.194Z,99056.78
2024-05-09T06:21:52.972Z,99070.22
2024-05-09T06:24:26.321Z,99068.25
2024-05-09T06:26:59.580Z,99063.06
2024-05-09T06:29:32.875Z,99052.66
2024-05-09T06:32:06.604Z,99054.13
2024-05-09T06:34:38.945Z,99054.31
2024-05-09T06:37:11.655Z,99044.78
2024-05-09T06:39:46.175Z,99045.88
2024-05-09T06:42:18.796Z,99044.53
2024-05-09T06:44:50.928Z,99051.63
2024-05-09T06:47:24.122Z,99058.94
2024-05-09T06:49:56.651Z,99055.84
2024-05-09T06:52:29.356Z,99061.69
2024-05-09T06:55:01.697Z,99055.63
2024-05-09T06:57:34.078Z,99090.88
2024-05-09T07:00:10.341Z,99074.25
2024-05-09T07:02:47.984Z,99064.41
2024-05-09T07:05:20.707Z,99077.63
2024-05-09T07:07:53.468Z,99077.28
2024-05-09T07:10:32.415Z,99072.63
2024-05-09T07:13:12.207Z,99072.47
2024-05-09T07:15:44.424Z,99066.75
2024-05-09T07:18:18.755Z,99060.63
2024-05-09T07:20:52.095Z,99069.47
2024-05-09T07:23:24.864Z,99075.38
2024-05-09T07:25:58.649Z,99061.19
2024-05-09T07:28:31.390Z,99079.63
2024-05-09T07:31:03.697Z,99064.56
2024-05-09T07:33:36.837Z,99058.78
2024-05-09T07:36:09.036Z,99062.53
2024-05-09T07:38:42.150Z,99063.59
2024-05-09T07:41:14.508Z,99059.22
2024-05-09T07:43:47.271Z,99055.41
2024-05-09T07:47:14.520Z,99059.91
2024-05-09T07:50:53.512Z,99057.22
2024-05-09T07:54:40.735Z,99068.25
2024-05-09T07:57:13.125Z,99057.56
2024-05-09T07:59:45.804Z,99062.81
2024-05-09T08:02:18.040Z,99064.06
2024-05-09T08:04:51.353Z,99063.03
2024-05-09T08:07:23.548Z,99062.50
2024-05-09T08:09:56.574Z,99063.84
2024-05-09T08:12:28.801Z,99097.06
2024-05-09T08:15:01.725Z,99098.22
2024-05-09T08:17:34.013Z,99057.91
2024-05-09T08:20:07.660Z,99048.66
2024-05-09T08:22:41.289Z,99055.28
2024-05-09T08:25:14.626Z,99048.69
2024-05-09T08:27:47.794Z,99051.59
2024-05-09T08:30:29.810Z,99040.06
2024-05-09T08:33:09.289Z,99048.44
2024-05-09T08:35:43.798Z,99045.78
2024-05-09T08:38:16.670Z,99046.34
2024-05-09T08:40:49.912Z,99032.63
2024-05-09T08:43:25.235Z,99065.09
2024-05-09T08:46:00.646Z,99054.31
2024-05-09T08:48:36.663Z,99052.50
2024-05-09T08:51:09.917Z,99075.00
2024-05-09T08:53:43.846Z,99084.72
2024-05-09T08:56:18.733Z,99071.69
2024-05-09T08:59:01.369Z,99056.69
2024-05-09T09:01:38.021Z,99077.78
2024-05-09T09:04:22.785Z,99079.91
2024-05-09T09:06:58.318Z,99079.63
2024-05-09T09:09:34.254Z,99077.50
2024-05-09T09:12:08.575Z,99040.91
2024-05-09T09:14:42.630Z,99072.81
2024-05-09T09:17:16.703Z,99034.84
2024-05-09T09:19:48.818Z,99036.13
2024-05-09T09:22:22.392Z,99038.38
2024-05-09T09:24:55.024Z,99039.19
2024-05-09T09:27:27.755Z,99036.41
2024-05-09T09:30:00.647Z,99029.47
2024-05-09T09:32:33.321Z,99018.78
2024-05-09T09:35:06.216Z,99010.28
2024-05-09T09:37:39.138Z,99012.94
2024-05-09T09:40:22.267Z,99011.72
2024-05-09T09:42:58.574Z,99019.78
2024-05-09T09:45:33.820Z,99008.94
2024-05-09T09:48:08.333Z,99014.34
2024-05-09T09:50:41.549Z,99013.88
2024-05-09T09:53:16.427Z,99003.56
2024-05-09T09:55:49.435Z,99014.22
2024-05-09T09:58:23.233Z,99016.13
2024-05-09T10:00:55.638Z,99012.28
2024-05-09T10:03:28.710Z,99003.16
2024-05-09T10:06:01.396Z,99002.44
2024-05-09T10:11:37.017Z,99009.53
2024-05-09T10:14:12.278Z,99005.00
2024-05-09T10:16:45.806Z,99000.34
2024-05-09T10:19:28.132Z,99011.84
2024-05-09T10:22:05.434Z,98998.81
2024-05-09T10:24:54.820Z,99004.19
2024-05-09T10:27:31.987Z,99012.31
2024-05-09T10:30:11.540Z,98995.03
2024-05-09T10:32:48.668Z,98997.31
2024-05-09T10:35:22.804Z,98995.44
2024-05-09T10:37:56.973Z,98992.78
2024-05-09T10:40:31.559Z,98988.94
2024-05-09T10:43:06.599Z,98996.22
2024-05-09T10:45:39.468Z,98990.47
2024-05-09T10:48:13.582Z,98991.25
2024-05-09T10:50:47.035Z,98996.19
2024-05-09T10:53:21.026Z,99001.75
2024-05-09T10:56:00.295Z,98984.75
2024-05-09T10:58:33.808Z,98997.91
2024-05-09T11:01:07.402Z,98981.78
2024-05-09T11:03:41.558Z,98973.91
2024-05-09T11:06:16.256Z,98974.75
2024-05-09T11:08:50.640Z,98981.91
2024-05-09T11:11:22.828Z,98984.50
2024-05-09T11:13:56.405Z,98976.22
2024-05-09T11:16:28.873Z,98969.81
2024-05-09T11:19:02.592Z,98964.81
2024-05-09T11:21:34.824Z,98968.88
2024-05-09T11:24:11.210Z,98970.88
2024-05-09T11:26:43.729Z,98965.44
2024-05-09T11:29:19.488Z,98967.16
2024-05-09T11:31:52.728Z,98966.59
2024-05-09T11:34:26.049Z,98967.28
2024-05-09T11:36:58.453Z,98966.09
2024-05-09T11:39:32.097Z,98955.44
2024-05-09T11:42:04.994Z,98961.09
2024-05-09T11:44:39.124Z,98966.53
2024-05-09T11:47:11.742Z,98955.75
2024-05-09T11:49:45.316Z,98942.97
2024-05-09T11:52:17.575Z,98954.03
2024-05-09T11:54:51.155Z,98941.94
2024-05-09T11:57:24.464Z,98940.44
2024-05-09T11:59:58.339Z,98943.59
2024-05-09T12:02:30.455Z,98928.63
2024-05-09T12:05:05.112Z,98933.94
2024-05-09T12:07:37.252Z,98928.00
2024-05-09T12:10:16.513Z,98921.66
2024-05-09T12:12:53.426Z,98922.19
2024-05-09T12:15:26.912Z,98918.88
2024-05-09T12:18:02.535Z,98924.94
2024-05-09T12:20:39.607Z,98915.16
2024-05-09T12:23:13.171Z,98924.06
2024-05-09T12:25:46.018Z,98918.09
2024-05-09T12:28:18.419Z,98916.44
2024-05-09T12:30:52.628Z,98917.34
2024-05-09T12:33:24.911Z,98898.97
2024-05-09T12:35:58.943Z,98887.75
2024-05-09T12:38:31.488Z,98901.81
2024-05-09T12:41:05.364Z,98886.91
2024-05-09T12:43:38.075Z,98907.47
2024-05-09T12:46:12.209Z,98897.56
2024-05-09T12:48:44.539Z,98895.94
2024-05-09T12:51:18.523Z,98901.69
2024-05-09T12:53:50.544Z,98889.63
2024-05-09T12:56:24.244Z,98893.41
2024-05-09T12:58:56.780Z,98890.63
2024-05-09T13:01:30.549Z,98879.53
2024-05-09T13:04:03.369Z,98880.97
2024-05-09T13:06:37.612Z,98890.22
2024-05-09T13:09:11.878Z,98870.88
2024-05-09T13:11:45.778Z,98870.50
2024-05-09T13:14:17.867Z,98876.56
2024-05-09T13:16:51.404Z,98859.06
2024-05-09T13:19:23.758Z,98864.53
2024-05-09T13:21:57.796Z,98869.88
2024-05-09T13:24:30.605Z,98859.03
2024-05-09T13:27:03.948Z,98864.06
2024-05-09T13:29:36.184Z,98849.19
2024-05-09T13:32:09.672Z,98842.28
2024-05-09T13:34:42.263Z,98843.78
2024-05-09T13:37:16.160Z,98838.09
2024-05-09T13:39:48.743Z,98836.91
2024-05-09T13:42:22.287Z,98827.59
2024-05-09T13:44:55.082Z,98832.13
2024-05-09T13:47:29.073Z,98832.31
2024-05-09T13:50:02.008Z,98820.66
2024-05-09T13:52:36.706Z,98827.00
2024-05-09T13:55:08.951Z,98828.34
2024-05-09T13:57:42.636Z,98827.00
2024-05-09T14:00:26.992Z,98818.69
2024-05-09T14:03:09.086Z,98820.22
2024-05-09T14:05:41.633Z,98814.44
2024-05-09T14:08:16.154Z,98820.44
2024-05-09T14:10:49.320Z,98810.13
2024-05-09T14:13:23.170Z,98819.28
2024-05-09T14:15:56.188Z,98819.19
2024-05-09T14:18:30.303Z,98814.78
2024-05-09T14:21:03.730Z,98807.75
2024-05-09T14:23:36.538Z,98795.41
2024-05-09T14:26:09.113Z,98799.59
2024-05-09T14:28:43.035Z,98797.91
2024-05-09T14:31:15.172Z,98786.81
2024-05-09T14:33:49.069Z,98790.53
2024-05-09T14:36:21.251Z,98783.50
2024-05-09T14:38:54.979Z,98779.72
2024-05-09T14:41:27.265Z,98779.31
2024-05-09T14:44:01.764Z,98796.28
2024-05-09T14:46:33.930Z,98781.75
2024-05-09T14:49:09.901Z,98784.44
2024-05-09T14:51:48.371Z,98777.47
2024-05-09T14:54:22.487Z,98789.28
2024-05-09T14:56:55.217Z,98786.53
2024-05-09T14:59:29.080Z,98782.03
2024-05-09T15:02:01.424Z,98764.75
2024-05-09T15:04:35.093Z,98775.50
2024-05-09T15:07:08.328Z,98749.66
2024-05-09T15:09:44.396Z,98767.38
2024-05-09T15:12:16.576Z,98745.38
2024-05-09T15:14:50.829Z,98761.91
2024-05-09T15:17:23.234Z,98753.06
2024-05-09T15:19:56.900Z,98755.22
2024-05-09T15:22:29.543Z,98753.13
2024-05-09T15:25:03.235Z,98753.81
2024-05-09T15:27:37.685Z,98736.81
2024-05-09T15:30:13.241Z,98743.31
2024-05-09T15:32:47.800Z,98755.31
2024-05-09T15:35:21.571Z,98745.91
2024-05-09T15:37:54.134Z,98741.66
2024-05-09T15:40:36.185Z,98753.50
2024-05-09T15:43:12.873Z,98745.59
2024-05-09T15:45:46.483Z,98751.50
2024-05-09T15:48:19.216Z,98750.94
2024-05-09T15:50:53.262Z,98747.13
2024-05-09T15:53:25.413Z,98738.78
2024-05-09T15:55:59.053Z,98745.28
2024-05-09T15:58:31.873Z,98721.50
2024-05-09T16:01:05.979Z,98738.19
2024-05-09T16:03:38.290Z,98738.78
2024-05-09T16:06:11.952Z,98730.44
2024-05-09T16:08:44.061Z,98735.22
2024-05-09T16:11:20.205Z,98746.53
2024-05-09T16:13:52.747Z,98745.03
2024-05-09T16:16:26.282Z,98738.78
2024-05-09T16:18:58.991Z,98734.50
2024-05-09T16:21:32.565Z,98738.72
2024-05-09T16:24:05.205Z,98746.72
2024-05-09T16:26:39.487Z,98744.19
2024-05-09T16:29:11.675Z,98739.97
2024-05-09T16:31:45.612Z,98740.47
2024-05-09T16:34:18.227Z,98731.31
2024-05-09T16:36:52.807Z,98729.72
2024-05-09T16:39:25.392Z,98735.84
2024-05-09T16:41:59.171Z,98729.44
2024-05-09T16:44:33.045Z,98715.44
2024-05-09T16:47:08.756Z,98715.09
2024-05-09T16:49:41.073Z,98724.44
2024-05-09T16:52:16.048Z,98714.97
2024-05-09T16:54:48.212Z,98725.66
2024-05-09T16:57:22.019Z,98726.66
2024-05-09T16:59:54.095Z,98719.94
2024-05-09T17:02:27.876Z,98715.28
2024-05-09T17:05:00.209Z,98721.97
2024-05-09T17:07:34.101Z,98725.13
2024-05-09T17:10:10.331Z,98727.75
2024-05-09T17:12:48.179Z,98713.50
2024-05-09T17:15:20.828Z,98717.47
2024-05-09T17:17:54.730Z,98724.81
2024-05-09T17:20:34.647Z,98711.53
2024-05-09T17:23:14.431Z,98718.81
2024-05-09T17:25:47.277Z,98736.66
2024-05-09T17:28:21.568Z,98735.31
2024-05-09T17:30:54.251Z,98738.09
2024-05-09T17:33:29.370Z,98729.72
2024-05-09T17:36:01.612Z,98722.84
2024-05-09T17:38:35.752Z,98740.78
2024-05-09T17:41:08.342Z,98741.84
2024-05-09T17:43:42.355Z,98732.53
2024-05-09T17:46:14.560Z,98734.53
2024-05-09T17:48:49.008Z,98742.59
2024-05-09T17:51:21.235Z,98726.75
2024-05-09T17:53:54.852Z,98741.72
2024-05-09T17:56:27.226Z,98734.16
2024-05-09T17:59:00.766Z,98740.31
2024-05-09T18:01:32.972Z,98746.44
2024-05-09T18:04:06.582Z,98738.06
2024-05-09T18:06:38.869Z,98744.19
2024-05-09T18:09:12.597Z,98736.59
2024-05-09T18:11:44.762Z,98745.75
2024-05-09T18:14:18.637Z,98733.56
2024-05-09T18:16:51.269Z,98748.06
2024-05-09T18:19:25.015Z,98724.00
2024-05-09T18:21:57.947Z,98733.19
2024-05-09T18:24:30.882Z,98736.63
2024-05-09T18:27:03.522Z,98747.72
2024-05-09T18:29:37.488Z,98741.19
2024-05-09T18:32:09.635Z,98731.94
2024-05-09T18:34:43.144Z,98732.66
2024-05-09T18:37:15.736Z,98744.41
2024-05-09T18:39:49.362Z,98734.00
2024-05-09T18:42:22.042Z,98742.34
2024-05-09T18:44:55.802Z,98736.91
2024-05-09T18:47:28.501Z,98738.69
2024-05-09T18:50:05.916Z,98735.25
2024-05-09T18:52:41.501Z,98746.59
2024-05-09T18:55:15.437Z,98725.81
2024-05-09T18:57:48.084Z,98751.69
2024-05-09T19:00:31.598Z,98746.28
2024-05-09T19:03:12.431Z,98750.78
2024-05-09T19:05:47.574Z,98757.56
2024-05-09T19:08:20.492Z,98759.38
2024-05-09T19:10:55.214Z,98770.59
2024-05-09T19:13:28.234Z,98771.25
2024-05-09T19:16:02.352Z,98769.25
2024-05-09T19:18:36.792Z,98774.53
2024-05-09T19:21:10.561Z,98761.34
2024-05-09T19:23:50.421Z,98777.34
2024-05-09T19:26:26.229Z,98778.34
2024-05-09T19:28:58.842Z,98784.84
2024-05-09T19:31:34.103Z,98789.78
2024-05-09T19:34:06.865Z,98789.78
2024-05-09T19:36:40.484Z,98778.34
2024-05-09T19:39:13.221Z,98787.06
2024-05-09T19:41:46.693Z,98775.91
2024-05-09T19:44:18.969Z,98777.47
2024-05-09T19:46:52.945Z,98787.78
2024-05-09T19:49:25.618Z,98792.69
2024-05-09T19:51:59.642Z,98790.94
2024-05-09T19:54:31.889Z,98784.72
2024-05-09T19:57:05.882Z,98783.44
2024-05-09T19:59:38.141Z,98774.41
2024-05-09T20:02:12.134Z,98791.66
2024-05-09T20:04:46.015Z,98804.06
2024-05-09T20:07:19.602Z,98779.72
2024-05-09T20:09:53.645Z,98796.56
2024-05-09T20:12:27.846Z,98804.41
2024-05-09T20:15:00.207Z,98788.13
2024-05-09T20:17:34.868Z,98799.28
2024-05-09T20:20:13.721Z,98803.59
2024-05-09T20:22:53.597Z,98810.63
2024-05-09T20:25:26.076Z,98812.69
2024-05-09T20:28:00.089Z,98816.47
2024-05-09T20:30:36.184Z,98795.31
2024-05-09T20:33:10.561Z,98802.69
2024-05-09T20:35:42.869Z,98802.88
2024-05-09T20:38:16.544Z,98793.00
2024-05-09T20:40:49.008Z,98799.88
2024-05-09T20:43:23.058Z,98809.28
2024-05-09T20:45:55.216Z,98806.94
2024-05-09T20:48:28.773Z,98801.47
2024-05-09T20:51:01.342Z,98807.03
2024-05-09T20:53:35.133Z,98810.28
2024-05-09T20:56:07.815Z,98804.91
2024-05-09T20:58:41.718Z,98804.81
2024-05-09T21:01:13.824Z,98793.50
2024-05-09T21:03:48.640Z,98797.59
2024-05-09T21:06:20.774Z,98789.38
2024-05-09T21:08:54.210Z,98781.94
2024-05-09T21:11:26.911Z,98793.38
2024-05-09T21:14:00.760Z,98796.03
2024-05-09T21:16:34.164Z,98790.28
2024-05-09T21:19:07.748Z,98786.94
2024-05-09T21:21:41.742Z,98779.69
2024-05-09T21:24:14.892Z,98784.69
2024-05-09T21:26:46.971Z,98787.09
2024-05-09T21:29:20.656Z,98779.22
2024-05-09T21:31:53.171Z,98787.94
2024-05-09T21:34:27.133Z,98785.09
2024-05-09T21:36:59.766Z,98789.53
2024-05-09T21:39:33.836Z,98790.44
2024-05-09T21:42:06.569Z,98784.94
2024-05-09T21:44:40.871Z,98782.19
2024-05-09T21:47:12.983Z,98762.81
2024-05-09T21:49:46.437Z,98778.78
2024-05-09T21:52:19.393Z,98777.28
2024-05-09T21:54:52.890Z,98769.44
2024-05-09T21:57:25.398Z,98786.84
2024-05-09T21:59:59.465Z,98783.25
2024-05-09T22:02:31.951Z,98790.75
2024-05-09T22:05:06.056Z,98775.22
2024-05-09T22:07:38.795Z,98797.72
2024-05-09T22:10:20.030Z,98775.66
2024-05-09T22:12:59.401Z,98779.84
2024-05-09T22:15:37.054Z,98782.38
2024-05-09T22:18:11.416Z,98788.13
2024-05-09T22:20:46.584Z,98784.47
2024-05-09T22:23:18.948Z,98786.56
2024-05-09T22:25:52.369Z,98783.34
2024-05-09T22:28:24.510Z,98792.84
2024-05-09T22:30:58.081Z,98780.84
2024-05-09T22:33:30.216Z,98780.94
2024-05-09T22:36:04.254Z,98786.25
2024-05-09T22:38:36.814Z,98780.41
2024-05-09T22:41:10.330Z,98788.88
2024-05-09T22:43:42.392Z,98781.84
2024-05-09T22:46:16.059Z,98773.97
2024-05-09T22:48:48.200Z,98779.94
2024-05-09T22:51:21.805Z,98765.84
2024-05-09T22:53:53.867Z,98767.16
2024-05-09T22:56:28.949Z,98772.56
2024-05-09T22:59:01.718Z,98778.50
2024-05-09T23:01:35.243Z,98775.00
2024-05-09T23:04:07.489Z,98768.50
2024-05-09T23:06:44.173Z,98765.94
2024-05-09T23:09:16.259Z,98770.47
2024-05-09T23:11:49.167Z,98769.59
2024-05-09T23:14:22.037Z,98769.47
2024-05-09T23:16:54.820Z,98765.63
2024-05-09T23:19:26.952Z,98771.13
2024-05-09T23:22:00.868Z,98768.06
2024-05-09T23:24:33.198Z,98763.97
2024-05-09T23:27:07.016Z,98777.59
2024-05-09T23:29:39.261Z,98766.25
2024-05-09T23:32:12.829Z,98766.25
2024-05-09T23:34:45.082Z,98763.63
2024-05-09T23:37:18.772Z,98764.31
2024-05-09T23:39:50.992Z,98755.03
2024-05-09T23:42:24.466Z,98755.47
2024-05-09T23:44:58.431Z,98757.25
2024-05-09T23:47:32.240Z,98761.19
2024-05-09T23:50:11.149Z,98752.72
2024-05-09T23:52:49.756Z,98742.31
2024-05-09T23:55:21.992Z,98746.41
2024-05-09T23:57:55.578Z,98749.81
